createdAt,value
2019-03-21T00:00:39.641Z,1015.60
2019-03-21T00:01:50.808Z,1015.59
2019-03-21T00:03:01.629Z,1015.56
2019-03-21T00:04:12.304Z,1015.61
2019-03-21T00:05:22.984Z,1015.55
2019-03-21T00:06:33.663Z,1015.62
2019-03-21T00:07:44.825Z,1015.62
2019-03-21T00:08:55.646Z,1015.64
2019-03-21T00:10:06.323Z,1015.61
2019-03-21T00:11:16.997Z,1015.60
2019-03-21T00:12:27.665Z,1015.63
2019-03-21T00:13:38.341Z,1015.64
2019-03-21T00:14:49.010Z,1015.65
2019-03-21T00:15:59.684Z,1015.63
2019-03-21T00:17:10.844Z,1015.65
2019-03-21T00:18:21.504Z,1015.68
2019-03-21T00:19:32.160Z,1015.69
2019-03-21T00:20:43.310Z,1015.67
2019-03-21T00:21:54.464Z,1015.66
2019-03-21T00:23:05.129Z,1015.69
2019-03-21T00:24:15.789Z,1015.66
2019-03-21T00:25:26.447Z,1015.66
2019-03-21T00:26:37.105Z,1015.67
2019-03-21T00:27:47.758Z,1015.67
2019-03-21T00:28:58.413Z,1015.67
2019-03-21T00:30:09.071Z,1015.69
2019-03-21T00:31:19.731Z,1015.71
2019-03-21T00:32:30.395Z,1015.72
2019-03-21T00:33:41.616Z,1015.70
2019-03-21T00:34:52.280Z,1015.66
2019-03-21T00:36:02.938Z,1015.69
2019-03-21T00:37:13.596Z,1015.71
2019-03-21T00:38:24.261Z,1015.69
2019-03-21T00:39:34.918Z,1015.66
2019-03-21T00:40:45.577Z,1015.68
2019-03-21T00:41:57.245Z,1015.69
2019-03-21T00:43:07.896Z,1015.69
2019-03-21T00:44:18.666Z,1015.65
2019-03-21T00:45:29.212Z,1015.67
2019-03-21T00:46:39.869Z,1015.67
2019-03-21T00:47:50.534Z,1015.70
2019-03-21T00:49:01.187Z,1015.65
2019-03-21T00:50:11.841Z,1015.64
2019-03-21T00:51:22.499Z,1015.65
2019-03-21T00:52:33.157Z,1015.67
2019-03-21T00:53:43.820Z,1015.67
2019-03-21T00:54:54.468Z,1015.67
2019-03-21T00:56:05.122Z,1015.66
2019-03-21T00:57:15.792Z,1015.63
2019-03-21T00:58:26.439Z,1015.63
2019-03-21T00:59:37.087Z,1015.62
2019-03-21T01:00:48.233Z,1015.57
2019-03-21T01:01:58.873Z,1015.59
2019-03-21T01:03:09.530Z,1015.60
2019-03-21T01:04:20.185Z,1015.61
2019-03-21T01:05:30.830Z,1015.68
2019-03-21T01:06:41.697Z,1015.70
2019-03-21T01:07:52.306Z,1015.69
2019-03-21T01:09:02.952Z,1015.72
2019-03-21T01:10:13.611Z,1015.72
2019-03-21T01:11:24.267Z,1015.67
2019-03-21T01:12:35.463Z,1015.68
2019-03-21T01:13:46.057Z,1015.69
2019-03-21T01:14:56.710Z,1015.68
2019-03-21T01:16:07.861Z,1015.71
2019-03-21T01:17:18.510Z,1015.69
2019-03-21T01:18:30.160Z,1015.68
2019-03-21T01:19:40.820Z,1015.69
2019-03-21T01:20:51.974Z,1015.65
2019-03-21T01:22:02.609Z,1015.63
2019-03-21T01:23:13.262Z,1015.60
2019-03-21T01:24:23.914Z,1015.63
2019-03-21T01:25:34.557Z,1015.61
2019-03-21T01:26:45.702Z,1015.65
2019-03-21T01:27:56.343Z,1015.59
2019-03-21T01:29:06.999Z,1015.58
2019-03-21T01:30:17.649Z,1015.59
2019-03-21T01:31:28.302Z,1015.56
2019-03-21T01:32:38.941Z,1015.60
2019-03-21T01:33:49.596Z,1015.59
2019-03-21T01:35:00.358Z,1015.60
2019-03-21T01:36:11.364Z,1015.63
2019-03-21T01:37:22.006Z,1015.62
2019-03-21T01:38:32.661Z,1015.60
2019-03-21T01:39:43.318Z,1015.61
2019-03-21T01:40:53.973Z,1015.59
2019-03-21T01:42:04.627Z,1015.57
2019-03-21T01:43:15.277Z,1015.57
2019-03-21T01:44:25.924Z,1015.52
2019-03-21T01:45:36.602Z,1015.53
2019-03-21T01:46:47.219Z,1015.50
2019-03-21T01:47:57.862Z,1015.53
2019-03-21T01:49:08.524Z,1015.55
2019-03-21T01:50:19.676Z,1015.54
2019-03-21T01:51:30.313Z,1015.54
2019-03-21T01:52:40.950Z,1015.55
2019-03-21T01:53:51.604Z,1015.53
2019-03-21T01:55:02.250Z,1015.56
2019-03-21T01:56:12.886Z,1015.59
2019-03-21T01:57:23.531Z,1015.60
2019-03-21T01:58:34.183Z,1015.59
2019-03-21T01:59:44.827Z,1015.58
2019-03-21T02:00:55.626Z,1015.57
2019-03-21T02:02:06.263Z,1015.59
2019-03-21T02:03:16.919Z,1015.54
2019-03-21T02:04:27.574Z,1015.50
2019-03-21T02:05:38.215Z,1015.50
2019-03-21T02:06:48.869Z,1015.52
2019-03-21T02:07:59.506Z,1015.54
2019-03-21T02:09:10.151Z,1015.53
2019-03-21T02:10:20.803Z,1015.53
2019-03-21T02:11:31.452Z,1015.46
2019-03-21T02:12:42.093Z,1015.43
2019-03-21T02:13:52.727Z,1015.43
2019-03-21T02:15:03.367Z,1015.45
2019-03-21T02:16:14.010Z,1015.45
2019-03-21T02:17:24.655Z,1015.46
2019-03-21T02:18:35.301Z,1015.47
2019-03-21T02:19:45.948Z,1015.45
2019-03-21T02:20:56.596Z,1015.49
2019-03-21T02:22:07.230Z,1015.49
2019-03-21T02:23:17.863Z,1015.50
2019-03-21T02:24:28.507Z,1015.53
2019-03-21T02:25:39.144Z,1015.50
2019-03-21T02:26:49.789Z,1015.51
2019-03-21T02:28:00.427Z,1015.54
2019-03-21T02:29:11.060Z,1015.55
2019-03-21T02:30:21.703Z,1015.53
2019-03-21T02:31:33.335Z,1015.53
2019-03-21T02:32:43.975Z,1015.59
2019-03-21T02:33:54.608Z,1015.56
2019-03-21T02:35:05.260Z,1015.56
2019-03-21T02:36:16.881Z,1015.56
2019-03-21T02:37:27.530Z,1015.54
2019-03-21T02:38:38.171Z,1015.48
2019-03-21T02:39:59.287Z,1015.50
2019-03-21T02:40:59.463Z,1015.48
2019-03-21T02:42:10.117Z,1015.46
2019-03-21T02:43:21.752Z,1015.51
2019-03-21T02:44:32.402Z,1015.47
2019-03-21T02:45:43.020Z,1015.46
2019-03-21T02:46:53.973Z,1015.48
2019-03-21T02:48:04.610Z,1015.47
2019-03-21T02:49:15.244Z,1015.48
2019-03-21T02:50:25.881Z,1015.50
2019-03-21T02:51:36.515Z,1015.47
2019-03-21T02:52:47.161Z,1015.51
2019-03-21T02:53:57.784Z,1015.47
2019-03-21T02:55:08.426Z,1015.46
2019-03-21T02:56:19.062Z,1015.47
2019-03-21T02:57:29.700Z,1015.48
2019-03-21T02:58:40.358Z,1015.48
2019-03-21T02:59:50.969Z,1015.48
2019-03-21T03:01:01.613Z,1015.47
2019-03-21T03:02:12.258Z,1015.50
2019-03-21T03:03:22.902Z,1015.54
2019-03-21T03:04:33.523Z,1015.55
2019-03-21T03:05:44.154Z,1015.57
2019-03-21T03:06:54.794Z,1015.58
2019-03-21T03:08:05.432Z,1015.56
2019-03-21T03:09:16.058Z,1015.59
2019-03-21T03:10:26.702Z,1015.61
2019-03-21T03:11:37.344Z,1015.62
2019-03-21T03:12:47.989Z,1015.56
2019-03-21T03:13:58.625Z,1015.57
2019-03-21T03:15:21.758Z,1015.57
2019-03-21T03:16:19.880Z,1015.59
2019-03-21T03:17:30.516Z,1015.59
2019-03-21T03:18:41.160Z,1015.60
2019-03-21T03:19:51.785Z,1015.61
2019-03-21T03:21:02.415Z,1015.61
2019-03-21T03:22:13.050Z,1015.56
2019-03-21T03:23:24.195Z,1015.49
2019-03-21T03:24:34.941Z,1015.54
2019-03-21T03:25:45.580Z,1015.55
2019-03-21T03:26:56.202Z,1015.55
2019-03-21T03:28:06.834Z,1015.53
2019-03-21T03:29:17.474Z,1015.48
2019-03-21T03:30:28.106Z,1015.43
2019-03-21T03:31:41.136Z,1015.42
2019-03-21T03:32:51.900Z,1015.39
2019-03-21T03:34:02.537Z,1015.38
2019-03-21T03:35:13.157Z,1015.36
2019-03-21T03:36:24.790Z,1015.37
2019-03-21T03:37:35.420Z,1015.34
2019-03-21T03:38:46.052Z,1015.35
2019-03-21T03:39:56.681Z,1015.33
2019-03-21T03:41:07.317Z,1015.35
2019-03-21T03:42:17.942Z,1015.36
2019-03-21T03:43:28.575Z,1015.41
2019-03-21T03:44:40.210Z,1015.38
2019-03-21T03:45:50.829Z,1015.38
2019-03-21T03:47:01.621Z,1015.38
2019-03-21T03:48:12.255Z,1015.38
2019-03-21T03:49:22.894Z,1015.39
2019-03-21T03:50:34.515Z,1015.44
2019-03-21T03:51:45.152Z,1015.46
2019-03-21T03:52:55.770Z,1015.45
2019-03-21T03:54:06.403Z,1015.45
2019-03-21T03:55:17.035Z,1015.49
2019-03-21T03:56:27.658Z,1015.51
2019-03-21T03:57:38.592Z,1015.52
2019-03-21T03:58:49.223Z,1015.51
2019-03-21T04:00:00.460Z,1015.51
2019-03-21T04:01:10.968Z,1015.56
2019-03-21T04:02:21.598Z,1015.59
2019-03-21T04:03:32.223Z,1015.60
2019-03-21T04:04:42.849Z,1015.59
2019-03-21T04:05:53.621Z,1015.57
2019-03-21T04:07:04.245Z,1015.59
2019-03-21T04:08:15.354Z,1015.60
2019-03-21T04:09:26.479Z,1015.59
2019-03-21T04:10:37.116Z,1015.58
2019-03-21T04:11:47.735Z,1015.56
2019-03-21T04:12:58.859Z,1015.60
2019-03-21T04:14:09.627Z,1015.62
2019-03-21T04:15:20.261Z,1015.62
2019-03-21T04:16:30.894Z,1015.60
2019-03-21T04:17:42.003Z,1015.59
2019-03-21T04:18:52.637Z,1015.62
2019-03-21T04:20:03.263Z,1015.58
2019-03-21T04:21:13.895Z,1015.62
2019-03-21T04:22:24.511Z,1015.62
2019-03-21T04:23:35.140Z,1015.61
2019-03-21T04:24:45.765Z,1015.61
2019-03-21T04:25:56.397Z,1015.63
2019-03-21T04:27:07.026Z,1015.58
2019-03-21T04:28:17.655Z,1015.64
2019-03-21T04:29:28.283Z,1015.59
2019-03-21T04:30:38.901Z,1015.63
2019-03-21T04:31:49.527Z,1015.63
2019-03-21T04:33:00.164Z,1015.61
2019-03-21T04:34:10.787Z,1015.64
2019-03-21T04:35:21.421Z,1015.65
2019-03-21T04:36:32.044Z,1015.65
2019-03-21T04:37:42.667Z,1015.63
2019-03-21T04:38:53.291Z,1015.69
2019-03-21T04:40:03.920Z,1015.68
2019-03-21T04:41:14.548Z,1015.68
2019-03-21T04:42:25.166Z,1015.67
2019-03-21T04:43:35.793Z,1015.62
2019-03-21T04:44:46.418Z,1015.64
2019-03-21T04:46:03.482Z,1015.64
2019-03-21T04:47:08.151Z,1015.63
2019-03-21T04:48:18.772Z,1015.63
2019-03-21T04:49:29.395Z,1015.65
2019-03-21T04:50:40.504Z,1015.71
2019-03-21T04:51:51.140Z,1015.67
2019-03-21T04:53:01.756Z,1015.68
2019-03-21T04:54:12.378Z,1015.66
2019-03-21T04:55:22.996Z,1015.66
2019-03-21T04:56:33.658Z,1015.69
2019-03-21T04:57:44.270Z,1015.71
2019-03-21T04:58:55.892Z,1015.73
2019-03-21T05:00:06.523Z,1015.72
2019-03-21T05:01:17.137Z,1015.70
2019-03-21T05:02:27.761Z,1015.69
2019-03-21T05:03:38.379Z,1015.75
2019-03-21T05:04:48.995Z,1015.77
2019-03-21T05:05:59.621Z,1015.78
2019-03-21T05:07:10.243Z,1015.75
2019-03-21T05:08:20.866Z,1015.79
2019-03-21T05:09:31.978Z,1015.78
2019-03-21T05:10:42.607Z,1015.83
2019-03-21T05:11:53.225Z,1015.81
2019-03-21T05:13:03.837Z,1015.83
2019-03-21T05:14:14.454Z,1015.81
2019-03-21T05:15:25.065Z,1015.77
2019-03-21T05:16:35.686Z,1015.73
2019-03-21T05:17:46.306Z,1015.76
2019-03-21T05:18:56.918Z,1015.77
2019-03-21T05:20:09.023Z,1015.85
2019-03-21T05:21:19.643Z,1015.83
2019-03-21T05:22:30.268Z,1015.86
2019-03-21T05:23:40.881Z,1015.82
2019-03-21T05:24:51.994Z,1015.78
2019-03-21T05:26:04.071Z,1015.84
2019-03-21T05:27:13.235Z,1015.83
2019-03-21T05:28:23.852Z,1015.81
2019-03-21T05:29:34.472Z,1015.84
2019-03-21T05:30:45.094Z,1015.87
2019-03-21T05:31:55.714Z,1015.84
2019-03-21T05:33:06.332Z,1015.87
2019-03-21T05:34:16.950Z,1015.82
2019-03-21T05:35:27.564Z,1015.84
2019-03-21T05:36:38.349Z,1015.83
2019-03-21T05:37:48.959Z,1015.81
2019-03-21T05:38:59.575Z,1015.82
2019-03-21T05:40:10.196Z,1015.82
2019-03-21T05:41:20.813Z,1015.88
2019-03-21T05:42:31.435Z,1015.84
2019-03-21T05:43:42.056Z,1015.85
2019-03-21T05:44:53.163Z,1015.87
2019-03-21T05:46:03.787Z,1015.85
2019-03-21T05:47:14.417Z,1015.91
2019-03-21T05:48:25.041Z,1015.84
2019-03-21T05:49:35.669Z,1015.84
2019-03-21T05:50:46.289Z,1015.91
2019-03-21T05:51:56.912Z,1015.87
2019-03-21T05:53:08.038Z,1015.90
2019-03-21T05:54:19.144Z,1015.91
2019-03-21T05:55:30.269Z,1015.87
2019-03-21T05:56:40.899Z,1015.91
2019-03-21T05:57:51.526Z,1015.91
2019-03-21T05:59:02.157Z,1015.93
2019-03-21T06:00:12.778Z,1015.92
2019-03-21T06:01:23.401Z,1015.96
2019-03-21T06:02:34.032Z,1015.95
2019-03-21T06:03:46.140Z,1015.92
2019-03-21T06:04:56.769Z,1015.89
2019-03-21T06:06:07.884Z,1015.90
2019-03-21T06:07:19.628Z,1015.87
2019-03-21T06:08:31.241Z,1015.88
2019-03-21T06:09:41.872Z,1015.87
2019-03-21T06:10:52.493Z,1015.91
2019-03-21T06:12:03.109Z,1015.89
2019-03-21T06:13:13.737Z,1015.90
2019-03-21T06:14:24.361Z,1015.91
2019-03-21T06:15:34.979Z,1015.92
2019-03-21T06:16:45.598Z,1015.91
2019-03-21T06:17:56.227Z,1015.95
2019-03-21T06:19:06.846Z,1015.91
2019-03-21T06:20:17.623Z,1015.93
2019-03-21T06:21:28.245Z,1015.96
2019-03-21T06:22:38.883Z,1015.98
2019-03-21T06:23:49.504Z,1016.00
2019-03-21T06:25:00.438Z,1016.02
2019-03-21T06:26:10.767Z,1015.98
2019-03-21T06:27:21.882Z,1015.99
2019-03-21T06:28:33.023Z,1015.96
2019-03-21T06:29:44.145Z,1016.00
2019-03-21T06:30:54.769Z,1016.01
2019-03-21T06:32:05.897Z,1015.99
2019-03-21T06:33:16.532Z,1015.98
2019-03-21T06:34:27.178Z,1016.03
2019-03-21T06:35:37.798Z,1016.04
2019-03-21T06:36:48.928Z,1016.01
2019-03-21T06:37:59.565Z,1016.06
2019-03-21T06:39:10.209Z,1015.96
2019-03-21T06:40:20.843Z,1016.08
2019-03-21T06:41:31.477Z,1016.05
2019-03-21T06:42:43.112Z,1016.02
2019-03-21T06:43:53.754Z,1016.02
2019-03-21T06:45:04.381Z,1016.05
2019-03-21T06:46:15.012Z,1016.08
2019-03-21T06:47:25.642Z,1016.07
2019-03-21T06:48:36.298Z,1016.09
2019-03-21T06:49:46.931Z,1016.12
2019-03-21T06:50:57.566Z,1016.17
2019-03-21T06:52:08.210Z,1016.15
2019-03-21T06:53:19.846Z,1016.15
2019-03-21T06:54:30.502Z,1016.17
2019-03-21T06:55:41.131Z,1016.12
2019-03-21T06:56:51.764Z,1016.09
2019-03-21T06:58:02.412Z,1016.08
2019-03-21T06:59:13.057Z,1016.10
2019-03-21T07:00:24.976Z,1016.10
2019-03-21T07:01:34.338Z,1016.13
2019-03-21T07:02:44.991Z,1016.17
2019-03-21T07:04:06.335Z,1016.16
2019-03-21T07:05:06.279Z,1016.17
2019-03-21T07:06:16.913Z,1016.15
2019-03-21T07:07:27.573Z,1016.10
2019-03-21T07:08:38.214Z,1016.13
2019-03-21T07:09:49.864Z,1016.11
2019-03-21T07:11:00.517Z,1016.16
2019-03-21T07:12:11.172Z,1016.12
2019-03-21T07:13:21.815Z,1016.10
2019-03-21T07:14:32.475Z,1016.09
2019-03-21T07:15:43.131Z,1016.06
2019-03-21T07:17:00.389Z,1016.10
2019-03-21T07:18:04.421Z,1016.11
2019-03-21T07:19:15.056Z,1016.16
2019-03-21T07:20:25.725Z,1016.18
2019-03-21T07:21:36.383Z,1016.14
2019-03-21T07:22:47.032Z,1016.15
2019-03-21T07:23:57.702Z,1016.15
2019-03-21T07:25:08.358Z,1016.20
2019-03-21T07:26:19.004Z,1016.23
2019-03-21T07:27:29.696Z,1016.27
2019-03-21T07:28:40.349Z,1016.21
2019-03-21T07:29:51.006Z,1016.23
2019-03-21T07:31:01.655Z,1016.23
2019-03-21T07:32:12.310Z,1016.18
2019-03-21T07:33:22.967Z,1016.21
2019-03-21T07:34:34.109Z,1016.17
2019-03-21T07:35:44.770Z,1016.15
2019-03-21T07:36:55.433Z,1016.16
2019-03-21T07:38:06.098Z,1016.17
2019-03-21T07:39:16.740Z,1016.19
2019-03-21T07:40:27.404Z,1016.14
2019-03-21T07:41:38.078Z,1016.17
2019-03-21T07:42:48.729Z,1016.16
2019-03-21T07:43:59.381Z,1016.17
2019-03-21T07:45:10.046Z,1016.17
2019-03-21T07:46:20.703Z,1016.12
2019-03-21T07:47:31.359Z,1016.12
2019-03-21T07:48:42.026Z,1016.11
2019-03-21T07:49:52.683Z,1016.10
2019-03-21T07:51:03.349Z,1016.07
2019-03-21T07:52:14.015Z,1016.08
2019-03-21T07:53:24.675Z,1016.06
2019-03-21T07:54:35.342Z,1016.08
2019-03-21T07:55:46.015Z,1016.11
2019-03-21T07:56:57.175Z,1016.10
2019-03-21T07:58:07.836Z,1016.08
2019-03-21T07:59:18.494Z,1016.10
2019-03-21T08:00:29.173Z,1016.07
2019-03-21T08:01:39.836Z,1016.11
2019-03-21T08:02:50.499Z,1016.12
2019-03-21T08:04:03.015Z,1016.09
2019-03-21T08:05:11.825Z,1016.08
2019-03-21T08:06:22.500Z,1016.07
2019-03-21T08:07:33.172Z,1016.08
2019-03-21T08:08:43.845Z,1016.12
2019-03-21T08:09:54.527Z,1016.10
2019-03-21T08:11:05.437Z,1016.10
2019-03-21T08:12:16.113Z,1016.13
2019-03-21T08:13:26.783Z,1016.07
2019-03-21T08:14:37.464Z,1016.05
2019-03-21T08:15:48.142Z,1015.99
2019-03-21T08:16:58.824Z,1015.95
2019-03-21T08:18:09.509Z,1015.95
2019-03-21T08:19:20.199Z,1015.98
2019-03-21T08:20:30.873Z,1015.94
2019-03-21T08:21:41.553Z,1015.94
2019-03-21T08:22:52.237Z,1015.96
2019-03-21T08:24:02.924Z,1015.95
2019-03-21T08:25:13.600Z,1015.93
2019-03-21T08:26:24.293Z,1015.95
2019-03-21T08:27:34.978Z,1015.96
2019-03-21T08:28:45.668Z,1015.92
2019-03-21T08:29:56.348Z,1015.91
2019-03-21T08:31:07.035Z,1015.92
2019-03-21T08:32:17.756Z,1015.92
2019-03-21T08:33:28.452Z,1015.86
2019-03-21T08:34:39.145Z,1015.81
2019-03-21T08:35:49.836Z,1015.82
2019-03-21T08:37:00.531Z,1015.83
2019-03-21T08:38:11.225Z,1015.86
2019-03-21T08:39:21.931Z,1015.86
2019-03-21T08:40:32.651Z,1015.85
2019-03-21T08:41:43.344Z,1015.86
2019-03-21T08:42:54.048Z,1015.88
2019-03-21T08:44:04.748Z,1015.89
2019-03-21T08:45:15.444Z,1015.87
2019-03-21T08:46:26.144Z,1015.80
2019-03-21T08:47:37.167Z,1015.83
2019-03-21T08:48:47.549Z,1015.85
2019-03-21T08:49:58.256Z,1015.86
2019-03-21T08:51:09.049Z,1015.87
2019-03-21T08:52:19.685Z,1015.84
2019-03-21T08:53:30.406Z,1015.84
2019-03-21T08:54:42.598Z,1015.79
2019-03-21T08:55:53.797Z,1015.79
2019-03-21T08:57:04.508Z,1015.81
2019-03-21T08:58:15.226Z,1015.80
2019-03-21T08:59:25.941Z,1015.79
2019-03-21T09:00:36.667Z,1015.76
2019-03-21T09:01:47.381Z,1015.69
2019-03-21T09:02:58.106Z,1015.72
2019-03-21T09:04:09.842Z,1015.67
2019-03-21T09:05:20.555Z,1015.61
2019-03-21T09:06:31.263Z,1015.54
2019-03-21T09:07:42.479Z,1015.52
2019-03-21T09:08:53.215Z,1015.48
2019-03-21T09:10:03.920Z,1015.48
2019-03-21T09:11:14.638Z,1015.44
2019-03-21T09:12:25.361Z,1015.48
2019-03-21T09:13:36.098Z,1015.42
2019-03-21T09:14:46.826Z,1015.39
2019-03-21T09:15:57.564Z,1015.34
2019-03-21T09:17:08.281Z,1015.32
2019-03-21T09:18:19.019Z,1015.28
2019-03-21T09:19:29.746Z,1015.23
2019-03-21T09:20:40.485Z,1015.17
2019-03-21T09:21:51.213Z,1015.13
2019-03-21T09:23:01.946Z,1015.15
2019-03-21T09:24:12.688Z,1015.09
2019-03-21T09:25:23.941Z,1015.01
2019-03-21T09:26:34.700Z,1015.01
2019-03-21T09:27:45.437Z,1014.84
2019-03-21T09:28:56.185Z,1014.69
2019-03-21T09:30:06.935Z,1014.05
2019-03-21T09:31:17.688Z,1012.61
2019-03-21T09:32:28.637Z,1011.22
2019-03-21T09:33:39.421Z,1010.85
2019-03-21T09:34:50.717Z,1010.22
2019-03-21T09:36:01.550Z,1009.71
2019-03-21T09:37:12.415Z,1009.41
2019-03-21T09:38:23.800Z,1009.15
2019-03-21T09:39:35.199Z,1009.17
2019-03-21T09:40:46.135Z,1009.52
2019-03-21T09:41:57.089Z,1009.56
2019-03-21T09:43:08.080Z,1009.56
2019-03-21T09:44:19.096Z,1009.87
2019-03-21T09:45:30.141Z,1009.82
2019-03-21T09:46:50.489Z,1009.79
2019-03-21T09:47:52.788Z,1009.65
2019-03-21T09:49:03.917Z,1009.84
2019-03-21T09:50:15.536Z,1009.84
2019-03-21T09:51:30.908Z,1010.11
2019-03-21T09:52:38.365Z,1010.24
2019-03-21T09:53:49.569Z,1010.29
2019-03-21T09:55:00.787Z,1010.49
2019-03-21T09:56:12.023Z,1010.72
2019-03-21T09:57:23.275Z,1010.97
2019-03-21T09:58:34.549Z,1010.92
2019-03-21T09:59:45.843Z,1010.79
2019-03-21T10:00:57.153Z,1010.82
2019-03-21T10:02:08.463Z,1011.06
2019-03-21T10:03:19.799Z,1011.05
2019-03-21T10:04:31.653Z,1011.16
2019-03-21T10:05:43.022Z,1010.89
2019-03-21T10:06:54.404Z,1010.52
2019-03-21T10:08:05.796Z,1010.20
2019-03-21T10:09:17.702Z,1010.21
2019-03-21T10:10:29.118Z,1010.37
2019-03-21T10:11:40.548Z,1010.23
2019-03-21T10:12:51.991Z,1010.48
2019-03-21T10:14:03.435Z,1010.16
2019-03-21T10:15:15.386Z,1010.10
2019-03-21T10:16:26.846Z,1010.10
2019-03-21T10:17:38.326Z,1010.14
2019-03-21T10:18:49.812Z,1010.38
2019-03-21T10:20:01.333Z,1010.22
2019-03-21T10:21:12.820Z,1010.21
2019-03-21T10:22:24.344Z,1010.22
2019-03-21T10:23:35.858Z,1010.20
2019-03-21T10:24:47.403Z,1010.23
2019-03-21T10:25:58.957Z,1010.27
2019-03-21T10:27:10.511Z,1010.39
2019-03-21T10:28:22.066Z,1010.12
2019-03-21T10:29:33.668Z,1010.16
2019-03-21T10:30:45.293Z,1010.04
2019-03-21T10:31:56.825Z,1010.03
2019-03-21T10:33:08.919Z,1009.98
2019-03-21T10:34:21.007Z,1009.96
2019-03-21T10:35:32.857Z,1010.16
2019-03-21T10:36:44.230Z,1009.99
2019-03-21T10:37:56.358Z,1009.87
2019-03-21T10:39:07.969Z,1010.41
2019-03-21T10:40:19.595Z,1010.31
2019-03-21T10:41:31.713Z,1010.43
2019-03-21T10:42:43.859Z,1010.37
2019-03-21T10:43:55.487Z,1010.21
2019-03-21T10:45:07.117Z,1010.24
2019-03-21T10:46:18.773Z,1009.67
2019-03-21T10:47:30.930Z,1010.07
2019-03-21T10:48:42.578Z,1010.62
2019-03-21T10:49:54.226Z,1010.54
2019-03-21T10:51:06.378Z,1010.52
2019-03-21T10:52:18.539Z,1010.22
2019-03-21T10:53:30.201Z,1010.41
2019-03-21T10:54:41.938Z,1010.52
2019-03-21T10:55:53.567Z,1010.01
2019-03-21T10:57:05.247Z,1010.21
2019-03-21T10:58:16.932Z,1010.34
2019-03-21T10:59:28.640Z,1009.94
2019-03-21T11:00:40.826Z,1009.95
2019-03-21T11:01:52.530Z,1010.02
2019-03-21T11:03:04.239Z,1010.13
2019-03-21T11:04:16.004Z,1010.00
2019-03-21T11:05:28.151Z,1010.21
2019-03-21T11:06:39.891Z,1010.12
2019-03-21T11:07:51.611Z,1010.16
2019-03-21T11:09:03.829Z,1010.16
2019-03-21T11:10:16.070Z,1010.42
2019-03-21T11:11:28.300Z,1010.04
2019-03-21T11:12:40.051Z,1010.05
2019-03-21T11:13:51.802Z,1010.37
2019-03-21T11:15:04.041Z,1010.40
2019-03-21T11:16:15.799Z,1010.04
2019-03-21T11:17:27.566Z,1010.32
2019-03-21T11:18:39.331Z,1010.83
2019-03-21T11:19:51.587Z,1010.50
2019-03-21T11:21:03.860Z,1010.53
2019-03-21T11:22:16.136Z,1010.93
2019-03-21T11:23:27.921Z,1010.93
2019-03-21T11:24:39.959Z,1010.71
2019-03-21T11:25:51.742Z,1010.80
2019-03-21T11:27:03.535Z,1010.65
2019-03-21T11:28:17.624Z,1010.41
2019-03-21T11:29:27.139Z,1010.63
2019-03-21T11:30:39.429Z,1010.40
2019-03-21T11:31:51.739Z,1010.11
2019-03-21T11:33:03.565Z,1010.69
2019-03-21T11:34:15.371Z,1010.78
2019-03-21T11:35:27.185Z,1011.19
2019-03-21T11:36:39.041Z,1011.45
2019-03-21T11:37:50.833Z,1011.48
2019-03-21T11:39:02.657Z,1011.35
2019-03-21T11:40:14.621Z,1011.27
2019-03-21T11:41:26.444Z,1011.35
2019-03-21T11:42:38.275Z,1011.19
2019-03-21T11:43:50.114Z,1010.78
2019-03-21T11:45:01.937Z,1011.11
2019-03-21T11:46:14.765Z,1011.40
2019-03-21T11:47:26.606Z,1011.62
2019-03-21T11:48:38.474Z,1011.67
2019-03-21T11:49:50.270Z,1011.57
2019-03-21T11:51:02.637Z,1011.77
2019-03-21T11:52:18.466Z,1011.91
2019-03-21T11:53:27.267Z,1011.52
2019-03-21T11:54:39.114Z,1011.38
2019-03-21T11:55:50.930Z,1011.60
2019-03-21T11:57:02.776Z,1011.65
2019-03-21T11:58:17.548Z,1011.72
2019-03-21T11:59:38.423Z,1011.35
2019-03-21T12:00:43.939Z,1010.70
2019-03-21T12:01:52.186Z,1010.92
2019-03-21T12:03:04.651Z,1011.16
2019-03-21T12:04:16.497Z,1011.34
2019-03-21T12:05:28.354Z,1011.09
2019-03-21T12:06:40.204Z,1010.84
2019-03-21T12:07:52.059Z,1011.08
2019-03-21T12:09:03.908Z,1011.20
2019-03-21T12:10:15.754Z,1011.31
2019-03-21T12:11:28.090Z,1011.30
2019-03-21T12:12:39.936Z,1011.46
2019-03-21T12:13:52.270Z,1011.66
2019-03-21T12:15:04.626Z,1011.48
2019-03-21T12:16:16.622Z,1011.58
2019-03-21T12:17:28.634Z,1011.36
2019-03-21T12:18:40.486Z,1010.29
2019-03-21T12:19:52.320Z,1011.27
2019-03-21T12:21:04.170Z,1011.64
2019-03-21T12:22:15.994Z,1011.89
2019-03-21T12:23:27.837Z,1012.28
2019-03-21T12:24:39.669Z,1012.42
2019-03-21T12:25:51.501Z,1013.04
2019-03-21T12:27:03.821Z,1013.38
2019-03-21T12:28:15.663Z,1013.52
2019-03-21T12:29:27.506Z,1013.52
2019-03-21T12:30:39.343Z,1013.47
2019-03-21T12:31:51.190Z,1013.48
2019-03-21T12:33:03.076Z,1013.85
2019-03-21T12:34:15.348Z,1013.95
2019-03-21T12:35:27.675Z,1013.49
2019-03-21T12:36:39.509Z,1012.97
2019-03-21T12:37:51.335Z,1012.55
2019-03-21T12:39:03.170Z,1012.63
2019-03-21T12:40:14.992Z,1012.78
2019-03-21T12:41:26.835Z,1012.74
2019-03-21T12:42:38.654Z,1012.71
2019-03-21T12:43:50.642Z,1012.51
2019-03-21T12:45:02.962Z,1012.51
2019-03-21T12:46:14.781Z,1012.32
2019-03-21T12:47:31.035Z,1012.28
2019-03-21T12:48:38.452Z,1012.42
2019-03-21T12:49:50.280Z,1012.56
2019-03-21T12:51:02.114Z,1012.28
2019-03-21T12:52:14.429Z,1012.23
2019-03-21T12:53:26.761Z,1012.47
2019-03-21T12:54:38.784Z,1012.39
2019-03-21T12:55:50.654Z,1012.57
2019-03-21T12:57:02.438Z,1012.15
2019-03-21T12:58:14.259Z,1011.90
2019-03-21T12:59:26.090Z,1011.97
2019-03-21T13:00:38.431Z,1011.86
2019-03-21T13:01:50.753Z,1011.71
2019-03-21T13:03:02.580Z,1011.23
2019-03-21T13:04:14.406Z,1011.59
2019-03-21T13:05:26.235Z,1011.78
2019-03-21T13:06:38.072Z,1011.67
2019-03-21T13:07:49.894Z,1011.53
2019-03-21T13:09:02.213Z,1011.33
2019-03-21T13:10:14.035Z,1011.00
2019-03-21T13:11:26.367Z,1011.29
2019-03-21T13:12:38.689Z,1011.46
2019-03-21T13:13:51.019Z,1011.64
2019-03-21T13:15:02.843Z,1011.60
2019-03-21T13:16:14.648Z,1011.51
2019-03-21T13:17:26.621Z,1011.05
2019-03-21T13:18:38.459Z,1011.33
2019-03-21T13:19:50.275Z,1010.92
2019-03-21T13:21:02.087Z,1011.22
2019-03-21T13:22:13.914Z,1011.60
2019-03-21T13:23:25.728Z,1011.69
2019-03-21T13:24:37.543Z,1011.71
2019-03-21T13:25:49.351Z,1011.81
2019-03-21T13:27:01.658Z,1011.78
2019-03-21T13:28:13.458Z,1011.87
2019-03-21T13:29:25.783Z,1011.84
2019-03-21T13:30:37.578Z,1011.98
2019-03-21T13:31:49.380Z,1011.91
2019-03-21T13:33:01.179Z,1011.86
2019-03-21T13:34:12.982Z,1012.04
2019-03-21T13:35:32.777Z,1011.98
2019-03-21T13:36:38.072Z,1011.56
2019-03-21T13:37:50.366Z,1011.47
2019-03-21T13:39:02.159Z,1011.83
2019-03-21T13:40:13.937Z,1011.90
2019-03-21T13:41:26.210Z,1012.02
2019-03-21T13:42:38.623Z,1012.22
2019-03-21T13:43:50.420Z,1012.31
2019-03-21T13:45:02.201Z,1012.22
2019-03-21T13:46:13.974Z,1012.01
2019-03-21T13:47:26.239Z,1011.30
2019-03-21T13:48:38.630Z,1011.03
2019-03-21T13:49:50.898Z,1011.37
2019-03-21T13:51:02.678Z,1011.94
2019-03-21T13:52:14.412Z,1012.08
2019-03-21T13:53:26.155Z,1012.21
2019-03-21T13:54:37.919Z,1012.05
2019-03-21T13:55:49.685Z,1011.96
2019-03-21T13:57:01.439Z,1011.97
2019-03-21T13:58:13.205Z,1011.88
2019-03-21T13:59:24.955Z,1011.95
2019-03-21T14:00:36.704Z,1011.75
2019-03-21T14:01:48.435Z,1011.94
2019-03-21T14:03:00.174Z,1012.04
2019-03-21T14:04:11.908Z,1012.24
2019-03-21T14:05:23.641Z,1012.26
2019-03-21T14:06:35.384Z,1012.22
2019-03-21T14:07:47.101Z,1012.37
2019-03-21T14:08:58.823Z,1012.47
2019-03-21T14:10:10.524Z,1012.50
2019-03-21T14:11:22.229Z,1012.50
2019-03-21T14:12:33.930Z,1012.24
2019-03-21T14:13:46.128Z,1011.95
2019-03-21T14:14:57.811Z,1012.17
2019-03-21T14:16:09.987Z,1012.27
2019-03-21T14:17:22.471Z,1012.41
2019-03-21T14:18:33.827Z,1012.28
2019-03-21T14:19:45.495Z,1012.27